(°C)
33°
34°
34°
34°
34°
34°
33°
(°C)
31°
32°
32°
32°
31°
30°
29°
ЮЗ
ЮЗ
ЮЗ
ЮЗ
ЮЮЗ
ЮЮЗ
ЮЮЗ
(km/h)
13-28
14-28
16-29
16-29
16-28
16-27
13-23
(mm)
0
0
0
0
0
0
0
(%)
3
4
5
5
4
4
3

Издигане на слънцето

/ 73.2°
sun-icon
UV 9
06:18
20:22
Намаляваща полу-луна (240°)
00:41
10:35

METAR за Южна Каролина (KCUB)

Час Условия Температура/
Точка на оросяване
Вятър Видимост Времето Облаци Налягане Промяна Сурови
VFR 32.2°C / 17.2°C 210º 8kt >10km - Clear 1015 - KCUB 201553Z AUTO 21008KT 10SM CLR 32/17 A3000 RMK AO2 SLP157 T03220172
VFR 30.6°C / 18.9°C 200º 8kt >10km - Clear 1015 - KCUB 201453Z AUTO 20008KT 10SM CLR 31/19 A3000 RMK AO2 SLP154 T03060189 51012
VFR 28.9°C / 19.4°C 220º 7kt >10km - Clear 1015 - KCUB 201353Z AUTO 22007KT 10SM CLR 29/19 A2999 RMK AO2 SLP153 T02890194
VFR 26.7°C / 19.4°C 250º 7kt >10km - Clear 1014 - KCUB 201253Z AUTO 25007KT 10SM CLR 27/19 A2998 RMK AO2 SLP148 T02670194
VFR 24.4°C / 19.4°C 220º 5kt >10km - Clear 1014 - KCUB 201153Z AUTO 22005KT 9SM CLR 24/19 A2996 RMK AO2 SLP143 T02440194 10256 20228 51019
VFR 23.3°C / 18.9°C variable 0kt >10km - Clear 1013 - KCUB 201053Z AUTO 00000KT 8SM CLR 23/19 A2994 RMK AO2 SLP137 T02330189 $
VFR 23.3°C / 18.9°C variable 0kt >10km - Clear 1013 - KCUB 200953Z AUTO 00000KT 9SM CLR 23/19 A2993 RMK AO2 SLP130 T02330189 $
VFR 22.8°C / 18.9°C variable 0kt >10km - Clear 1012 - KCUB 200853Z AUTO 00000KT 8SM CLR 23/19 A2990 RMK AO2 SLP123 T02280189 53016 $
VFR 23.3°C / 18.9°C 160º 5kt >10km - Clear 1011 - KCUB 200753Z AUTO 16005KT 9SM CLR 23/19 A2988 RMK AO2 SLP116 T02330189 $
VFR 24.4°C / 18.9°C variable 0kt >10km - Clear 1011 - KCUB 200653Z AUTO 00000KT 9SM CLR 24/19 A2987 RMK AO2 SLP110 T02440189 $
VFR 25.6°C / 18.9°C variable 0kt >10km - Clear 1010 - KCUB 200553Z AUTO 00000KT 10SM CLR 26/19 A2986 RMK AO2 SLP108 T02560189 10322 20250 58004 $
VFR 25.6°C / 18.9°C variable 0kt >10km - Clear 1011 - KCUB 200453Z AUTO 00000KT 10SM CLR 26/19 A2987 RMK AO2 SLP111 T02560189 403610217 $
VFR 27.8°C / 18.3°C variable 0kt >10km - Clear 1011 - KCUB 200353Z AUTO 00000KT 9SM CLR 28/18 A2987 RMK AO2 SLP113 T02780183 $
VFR 29.4°C / 18.3°C 240º 5kt >10km - Clear 1011 - KCUB 200253Z AUTO 24005KT 9SM CLR 29/18 A2987 RMK AO2 SLP111 T02940183 $
VFR 29.4°C / 17.8°C 230º 5kt >10km - Clear 1010 - KCUB 200153Z AUTO 23005KT 8SM CLR 29/18 A2985 RMK AO2 SLP104 T02940178 $
VFR 31.1°C / 16.7°C 260º 3kt >10km - Clear 1009 - KCUB 200053Z AUTO 26003KT 10SM CLR 31/17 A2983 RMK AO2 SLP099 T03110167 $
VFR 32.2°C / 16.7°C 220º 4kt >10km - Clear 1009 - KCUB 192353Z AUTO 22004KT 10SM CLR 32/17 A2981 RMK AO2 SLP091 T03220167 10361 20322 53004
VFR 34.4°C / 16.1°C 270º 9kt >10km - Clear 1008 - KCUB 192253Z AUTO 27009KT 10SM CLR 34/16 A2980 RMK AO2 SLP087 T03440161
VFR 35.6°C / 15°C 280º 11kt >10km - Clear 1008 - KCUB 192153Z AUTO 28011KT 10SM CLR 36/15 A2980 RMK AO2 SLP088 T03560150
VFR 35.6°C / 13.9°C 260º 11kt Gust 21kt >10km - Clear 1008 - KCUB 192053Z AUTO 26011G21KT 10SM CLR 36/14 A2980 RMK AO2 SLP087 T03560139 58019
VFR 35.6°C / 16.1°C 230º 11kt >10km - Clear 1009 - KCUB 191953Z AUTO 23011KT 10SM CLR 36/16 A2981 RMK AO2 SLP093 T03560161
VFR 35.6°C / 15.6°C 240º 10kt >10km - Clear 1010 - KCUB 191853Z AUTO 24010KT 10SM CLR 36/16 A2984 RMK AO2 SLP101 T03560156
VFR 34.4°C / 16.7°C 250º 9kt Gust 20kt >10km - Clear 1010 - KCUB 191753Z AUTO 25009G20KT 10SM CLR 34/17 A2985 RMK AO2 SLP106 T03440167 10350 20239 58012
VFR 33.3°C / 18.3°C 290º 11kt >10km - Few Clouds 6000ft 1011 - KCUB 191653Z AUTO 29011KT 10SM FEW060 33/18 A2987 RMK AO2 SLP112 T03330183

VFR

32.2°C / 17.2°C

[Още]
Вятър 210º 8kt
Видимост >10km
Времето -
Облаци Clear
Налягане 1015
Промяна -
Сурови KCUB 201553Z AUTO 21008KT 10SM CLR 32/17 A3000 RMK AO2 SLP157 T03220172

VFR

30.6°C / 18.9°C

[Още]
Вятър 200º 8kt
Видимост >10km
Времето -
Облаци Clear
Налягане 1015
Промяна -
Сурови KCUB 201453Z AUTO 20008KT 10SM CLR 31/19 A3000 RMK AO2 SLP154 T03060189 51012

VFR

28.9°C / 19.4°C

[Още]
Вятър 220º 7kt
Видимост >10km
Времето -
Облаци Clear
Налягане 1015
Промяна -
Сурови KCUB 201353Z AUTO 22007KT 10SM CLR 29/19 A2999 RMK AO2 SLP153 T02890194

VFR

26.7°C / 19.4°C

[Още]
Вятър 250º 7kt
Видимост >10km
Времето -
Облаци Clear
Налягане 1014
Промяна -
Сурови KCUB 201253Z AUTO 25007KT 10SM CLR 27/19 A2998 RMK AO2 SLP148 T02670194

VFR

24.4°C / 19.4°C

[Още]
Вятър 220º 5kt
Видимост >10km
Времето -
Облаци Clear
Налягане 1014
Промяна -
Сурови KCUB 201153Z AUTO 22005KT 9SM CLR 24/19 A2996 RMK AO2 SLP143 T02440194 10256 20228 51019

VFR

23.3°C / 18.9°C

[Още]
Вятър variable 0kt
Видимост >10km
Времето -
Облаци Clear
Налягане 1013
Промяна -
Сурови KCUB 201053Z AUTO 00000KT 8SM CLR 23/19 A2994 RMK AO2 SLP137 T02330189 $

VFR

23.3°C / 18.9°C

[Още]
Вятър variable 0kt
Видимост >10km
Времето -
Облаци Clear
Налягане 1013
Промяна -
Сурови KCUB 200953Z AUTO 00000KT 9SM CLR 23/19 A2993 RMK AO2 SLP130 T02330189 $

VFR

22.8°C / 18.9°C

[Още]
Вятър variable 0kt
Видимост >10km
Времето -
Облаци Clear
Налягане 1012
Промяна -
Сурови KCUB 200853Z AUTO 00000KT 8SM CLR 23/19 A2990 RMK AO2 SLP123 T02280189 53016 $

VFR

23.3°C / 18.9°C

[Още]
Вятър 160º 5kt
Видимост >10km
Времето -
Облаци Clear
Налягане 1011
Промяна -
Сурови KCUB 200753Z AUTO 16005KT 9SM CLR 23/19 A2988 RMK AO2 SLP116 T02330189 $

VFR

24.4°C / 18.9°C

[Още]
Вятър variable 0kt
Видимост >10km
Времето -
Облаци Clear
Налягане 1011
Промяна -
Сурови KCUB 200653Z AUTO 00000KT 9SM CLR 24/19 A2987 RMK AO2 SLP110 T02440189 $

VFR

25.6°C / 18.9°C

[Още]
Вятър variable 0kt
Видимост >10km
Времето -
Облаци Clear
Налягане 1010
Промяна -
Сурови KCUB 200553Z AUTO 00000KT 10SM CLR 26/19 A2986 RMK AO2 SLP108 T02560189 10322 20250 58004 $

VFR

25.6°C / 18.9°C

[Още]
Вятър variable 0kt
Видимост >10km
Времето -
Облаци Clear
Налягане 1011
Промяна -
Сурови KCUB 200453Z AUTO 00000KT 10SM CLR 26/19 A2987 RMK AO2 SLP111 T02560189 403610217 $

VFR

27.8°C / 18.3°C

[Още]
Вятър variable 0kt
Видимост >10km
Времето -
Облаци Clear
Налягане 1011
Промяна -
Сурови KCUB 200353Z AUTO 00000KT 9SM CLR 28/18 A2987 RMK AO2 SLP113 T02780183 $

VFR

29.4°C / 18.3°C

[Още]
Вятър 240º 5kt
Видимост >10km
Времето -
Облаци Clear
Налягане 1011
Промяна -
Сурови KCUB 200253Z AUTO 24005KT 9SM CLR 29/18 A2987 RMK AO2 SLP111 T02940183 $

VFR

29.4°C / 17.8°C

[Още]
Вятър 230º 5kt
Видимост >10km
Времето -
Облаци Clear
Налягане 1010
Промяна -
Сурови KCUB 200153Z AUTO 23005KT 8SM CLR 29/18 A2985 RMK AO2 SLP104 T02940178 $

VFR

31.1°C / 16.7°C

[Още]
Вятър 260º 3kt
Видимост >10km
Времето -
Облаци Clear
Налягане 1009
Промяна -
Сурови KCUB 200053Z AUTO 26003KT 10SM CLR 31/17 A2983 RMK AO2 SLP099 T03110167 $

VFR

32.2°C / 16.7°C

[Още]
Вятър 220º 4kt
Видимост >10km
Времето -
Облаци Clear
Налягане 1009
Промяна -
Сурови KCUB 192353Z AUTO 22004KT 10SM CLR 32/17 A2981 RMK AO2 SLP091 T03220167 10361 20322 53004

VFR

34.4°C / 16.1°C

[Още]
Вятър 270º 9kt
Видимост >10km
Времето -
Облаци Clear
Налягане 1008
Промяна -
Сурови KCUB 192253Z AUTO 27009KT 10SM CLR 34/16 A2980 RMK AO2 SLP087 T03440161

VFR

35.6°C / 15°C

[Още]
Вятър 280º 11kt
Видимост >10km
Времето -
Облаци Clear
Налягане 1008
Промяна -
Сурови KCUB 192153Z AUTO 28011KT 10SM CLR 36/15 A2980 RMK AO2 SLP088 T03560150

VFR

35.6°C / 13.9°C

[Още]
Вятър 260º 11kt Gust 21kt
Видимост >10km
Времето -
Облаци Clear
Налягане 1008
Промяна -
Сурови KCUB 192053Z AUTO 26011G21KT 10SM CLR 36/14 A2980 RMK AO2 SLP087 T03560139 58019

VFR

35.6°C / 16.1°C

[Още]
Вятър 230º 11kt
Видимост >10km
Времето -
Облаци Clear
Налягане 1009
Промяна -
Сурови KCUB 191953Z AUTO 23011KT 10SM CLR 36/16 A2981 RMK AO2 SLP093 T03560161

VFR

35.6°C / 15.6°C

[Още]
Вятър 240º 10kt
Видимост >10km
Времето -
Облаци Clear
Налягане 1010
Промяна -
Сурови KCUB 191853Z AUTO 24010KT 10SM CLR 36/16 A2984 RMK AO2 SLP101 T03560156

VFR

34.4°C / 16.7°C

[Още]
Вятър 250º 9kt Gust 20kt
Видимост >10km
Времето -
Облаци Clear
Налягане 1010
Промяна -
Сурови KCUB 191753Z AUTO 25009G20KT 10SM CLR 34/17 A2985 RMK AO2 SLP106 T03440167 10350 20239 58012

VFR

33.3°C / 18.3°C

[Още]
Вятър 290º 11kt
Видимост >10km
Времето -
Облаци Few Clouds 6000ft
Налягане 1011
Промяна -
Сурови KCUB 191653Z AUTO 29011KT 10SM FEW060 33/18 A2987 RMK AO2 SLP112 T03330183

TAF за Южна Каролина (KCUB)

From till


From till Wind 220º 8kt. Visibility 10km or more. Few Clouds 25000ft.
From till Wind 230º 10kt. Gust 17kt. Visibility 10km or more. Few Clouds 25000ft.
From till Wind 170º 4kt. Visibility 10km or more. Scattered Clouds 25000ft.
From till Wind variable 3kt. Visibility 10km or more. Scattered Clouds 12000ft. Broken Clouds 25000ft.

Сурови: KCUB 201446Z 2015/2112 22008KT P6SM FEW250 FM201700 23010G17KT P6SM FEW250 FM210000 17004KT P6SM SCT250 FM210500 VRB03KT P6SM SCT120 BKN250

Радар и валежи в момента за Южна Каролина

Ситен дъжд
Лек
Умерен
Тежък
Много тежък
Аве

Маркерът за локация обозначава Южна Каролина. Анимацията показва Радара за валежи за последния час, както и прогноза за 1h. Дъждът или лекият сняг може да са невидими за радара. Интензивността на валежите е обозначена с цветни кодове, вариращи от светлосиньо до оранжево.

Актуални сателитни изображения за Южна Каролина, САЩ

Маркерът за локация е поставен върху Южна Каролина. [Още]

Сателитното изображение в реално време съчетава видимата светлина през деня с инфрачервеното лъчение през нощта. През нощта изображението не е тъмно, тъй като инфрачервеното лъчение може да открива температурни разлики. За съжаление ниските облаци и мъглата са трудни за разграничаване от температурите на земята и затова могат да бъдат почти невидими през нощта. Сателитните изображения на Meteosat за Европа се актуализират в реално време на всеки 5 минути. Изображенията GOES-16/GOES-17 (Северна и Южна Америка) и Химавари (Азия) се актуализират на всеки 10 минути.

Върнете се в началото